Time;durP1;ratioP1;P1;durP2;ratioP2;P2;SDS_P1;SDS_P2;PMS_P1;PMS_P2;Temp;Humidity;BMP_temperature;BMP_pressure;BME280_temperature;BME280_humidity;BME280_pressure;Samples;Min_cycle;Max_cycle;Signal;HPM_P1;HPM_P2
2023/09/04 00:00:49;;;;;;;5.78;3.72;;;15.40;99.90;;;;;;5045175;28;20043;-80
2023/09/04 00:03:15;;;;;;;4.82;3.67;;;15.30;99.90;;;;;;5038132;28;20077;-79
2023/09/04 00:05:40;;;;;;;5.72;3.47;;;15.30;99.90;;;;;;5044864;28;20096;-80
2023/09/04 00:08:06;;;;;;;3.55;3.00;;;15.30;99.90;;;;;;5043545;28;20076;-80
2023/09/04 00:10:32;;;;;;;5.05;3.55;;;15.20;99.90;;;;;;5046658;28;20044;-79
2023/09/04 00:12:57;;;;;;;3.75;3.05;;;15.20;99.90;;;;;;5042609;28;20619;-79
2023/09/04 00:15:23;;;;;;;3.15;2.85;;;15.10;99.90;;;;;;5039233;28;20049;-80
2023/09/04 00:17:52;;;;;;;3.38;2.58;;;15.00;99.90;;;;;;5044464;28;20056;-79
2023/09/04 00:20:17;;;;;;;4.13;3.60;;;15.00;99.90;;;;;;5032789;28;20049;-79
2023/09/04 00:22:43;;;;;;;6.03;4.50;;;15.00;99.90;;;;;;5037388;28;20134;-80
2023/09/04 00:25:09;;;;;;;5.95;4.20;;;14.90;99.90;;;;;;5047808;28;20453;-79
2023/09/04 00:27:35;;;;;;;6.70;4.40;;;14.90;99.90;;;;;;5046717;28;20124;-80
2023/09/04 00:30:00;;;;;;;5.35;4.80;;;14.90;99.90;;;;;;5047931;28;20128;-80
2023/09/04 00:32:26;;;;;;;4.97;4.38;;;14.90;99.90;;;;;;5044672;28;20048;-80
2023/09/04 00:34:52;;;;;;;8.23;4.95;;;14.90;99.90;;;;;;5023323;28;20044;-80
2023/09/04 00:37:17;;;;;;;5.30;4.80;;;14.90;99.90;;;;;;5045155;28;20124;-79
2023/09/04 00:39:43;;;;;;;5.68;5.18;;;14.90;99.90;;;;;;5041152;28;20037;-80
2023/09/04 00:42:10;;;;;;;6.15;5.43;;;14.90;99.90;;;;;;5042629;28;20135;-80
2023/09/04 00:44:36;;;;;;;6.40;5.32;;;14.80;99.90;;;;;;5047416;28;20077;-80
2023/09/04 00:47:03;;;;;;;6.65;5.00;;;14.80;99.90;;;;;;5047578;28;20047;-80
2023/09/04 00:49:29;;;;;;;;;;;14.80;99.90;;;;;;5046016;28;20037;-80
2023/09/04 00:51:56;;;;;;;5.72;5.13;;;14.70;99.90;;;;;;5039069;28;19928;-80
2023/09/04 00:54:23;;;;;;;;;;;14.70;99.90;;;;;;5038665;28;20060;-80
2023/09/04 00:56:51;;;;;;;6.32;5.72;;;14.70;99.90;;;;;;5043241;28;19924;-80
2023/09/04 00:59:18;;;;;;;6.72;5.68;;;14.70;99.90;;;;;;5033458;28;20041;-80
2023/09/04 01:01:43;;;;;;;6.07;5.43;;;14.70;99.90;;;;;;5042805;28;20487;-80
2023/09/04 01:04:09;;;;;;;5.20;3.97;;;14.60;99.90;;;;;;5045127;28;20124;-80
2023/09/04 01:06:35;;;;;;;5.88;4.32;;;14.60;99.90;;;;;;5042328;28;20143;-80
2023/09/04 01:09:01;;;;;;;5.65;4.13;;;14.60;99.90;;;;;;5038816;28;20049;-80
2023/09/04 01:11:40;;;;;;;5.00;4.32;;;14.50;99.90;;;;;;5044347;28;20049;-80
2023/09/04 01:14:13;;;;;;;4.55;3.90;;;14.50;99.90;;;;;;5047596;28;20045;-80
2023/09/04 01:16:39;;;;;;;4.90;4.40;;;14.50;99.90;;;;;;5047606;28;20544;-79
2023/09/04 01:19:06;;;;;;;5.97;4.43;;;14.40;99.90;;;;;;5042144;28;20124;-80
2023/09/04 01:21:36;;;;;;;5.15;4.65;;;14.40;99.90;;;;;;5039295;28;20037;-80
2023/09/04 01:24:02;;;;;;;8.38;4.82;;;14.40;99.90;;;;;;5036809;28;20045;-81
2023/09/04 01:26:38;;;;;;;6.15;5.00;;;14.30;99.90;;;;;;5049066;28;20041;-80
2023/09/04 01:29:22;;;;;;;4.80;4.30;;;14.30;99.90;;;;;;5038755;28;20048;-80
2023/09/04 01:31:55;;;;;;;6.00;4.88;;;14.20;99.90;;;;;;5053356;28;20326;-80
2023/09/04 01:34:38;;;;;;;7.18;5.90;;;14.20;99.90;;;;;;5047582;28;20453;-80
2023/09/04 01:37:04;;;;;;;6.40;5.57;;;14.20;99.90;;;;;;5046195;28;20045;-80
2023/09/04 01:39:31;;;;;;;9.05;5.60;;;14.20;99.90;;;;;;5047427;28;20056;-80
2023/09/04 01:41:56;;;;;;;6.85;5.25;;;14.10;99.90;;;;;;5045095;28;20144;-80
2023/09/04 01:44:24;;;;;;;6.90;5.47;;;14.10;99.90;;;;;;5044939;28;20124;-80
2023/09/04 01:46:50;;;;;;;7.25;5.75;;;14.10;99.90;;;;;;5036955;28;20045;-80
2023/09/04 01:49:16;;;;;;;7.30;5.30;;;14.10;99.90;;;;;;5035149;28;20079;-80
2023/09/04 01:51:41;;;;;;;9.68;5.78;;;14.10;99.90;;;;;;5046234;28;20040;-80
2023/09/04 01:54:08;;;;;;;6.20;5.50;;;14.10;99.90;;;;;;5045329;28;20391;-80
2023/09/04 01:56:34;;;;;;;7.22;6.25;;;14.10;99.90;;;;;;5039009;28;20045;-80
2023/09/04 01:58:59;;;;;;;7.78;5.60;;;14.10;99.90;;;;;;5043083;28;20121;-80
2023/09/04 02:01:25;;;;;;;6.38;5.78;;;14.10;99.90;;;;;;5048258;28;20499;-80
2023/09/04 02:03:57;;;;;;;6.97;6.28;;;14.10;99.90;;;;;;5050114;28;20102;-80
2023/09/04 02:06:24;;;;;;;8.35;6.15;;;14.10;99.90;;;;;;5046528;28;20389;-80
2023/09/04 02:08:50;;;;;;;7.45;5.97;;;14.10;99.90;;;;;;5051113;28;20528;-81
2023/09/04 02:11:16;;;;;;;8.13;6.65;;;14.00;99.90;;;;;;5046972;28;20043;-80
2023/09/04 02:13:41;;;;;;;9.13;7.15;;;14.00;99.90;;;;;;5040429;28;20037;-80
2023/09/04 02:16:07;;;;;;;7.07;6.10;;;14.00;99.90;;;;;;5036678;28;20060;-81
2023/09/04 02:18:32;;;;;;;7.43;6.22;;;14.00;99.90;;;;;;5040002;28;20087;-81
2023/09/04 02:21:03;;;;;;;7.53;6.57;;;14.00;99.90;;;;;;5049996;28;20099;-81
2023/09/04 02:23:29;;;;;;;8.18;5.72;;;13.90;99.90;;;;;;5047121;28;20084;-81
2023/09/04 02:25:54;;;;;;;7.63;6.75;;;13.90;99.90;;;;;;5046579;28;20118;-81
2023/09/04 02:28:20;;;;;;;8.43;6.97;;;13.90;99.90;;;;;;5045334;28;20041;-81
2023/09/04 02:30:46;;;;;;;7.22;6.47;;;13.90;99.90;;;;;;5040421;28;20041;-81
2023/09/04 02:33:11;;;;;;;7.65;6.03;;;13.90;99.90;;;;;;5049423;28;20068;-81
2023/09/04 02:35:37;;;;;;;6.57;5.88;;;13.90;99.90;;;;;;5048754;28;20045;-80
2023/09/04 02:38:03;;;;;;;5.43;4.82;;;13.90;99.90;;;;;;5042408;28;20036;-80
2023/09/04 02:40:29;;;;;;;5.75;5.15;;;13.90;99.90;;;;;;5047649;28;20049;-80
2023/09/04 02:42:54;;;;;;;5.78;5.22;;;13.80;99.90;;;;;;5038951;28;20042;-81
2023/09/04 02:45:20;;;;;;;8.88;6.68;;;13.80;99.90;;;;;;5039426;28;20053;-80
2023/09/04 02:47:46;;;;;;;8.77;6.88;;;13.80;99.90;;;;;;5033162;28;20764;-80
2023/09/04 02:50:12;;;;;;;8.43;6.80;;;13.80;99.90;;;;;;5049579;28;20033;-81
2023/09/04 02:52:38;;;;;;;8.35;7.28;;;13.80;99.90;;;;;;5045108;28;20139;-80
2023/09/04 02:55:05;;;;;;;8.38;7.57;;;13.80;99.90;;;;;;5054120;28;20570;-81
2023/09/04 02:57:31;;;;;;;9.37;8.23;;;13.80;99.90;;;;;;5042562;28;20048;-80
2023/09/04 03:00:01;;;;;;;8.20;7.40;;;13.70;99.90;;;;;;5040166;28;20037;-80
2023/09/04 03:02:27;;;;;;;7.97;7.28;;;13.70;99.90;;;;;;5033444;28;20069;-79
2023/09/04 03:04:54;;;;;;;7.65;6.95;;;13.70;99.90;;;;;;5044182;28;20455;-80
2023/09/04 03:07:21;;;;;;;6.95;6.20;;;13.70;99.90;;;;;;5046156;28;20394;-81
2023/09/04 03:09:46;;;;;;;6.85;6.13;;;13.60;99.90;;;;;;5041796;28;20048;-80
2023/09/04 03:12:12;;;;;;;8.20;6.20;;;13.60;99.90;;;;;;5036338;28;20521;-81
2023/09/04 03:14:38;;;;;;;7.95;6.47;;;13.60;99.90;;;;;;5042306;28;20127;-80
2023/09/04 03:17:04;;;;;;;8.52;6.57;;;13.60;99.90;;;;;;5036080;28;20037;-80
2023/09/04 03:19:30;;;;;;;7.45;6.45;;;13.50;99.90;;;;;;5045139;28;20063;-81
2023/09/04 03:21:55;;;;;;;7.47;6.50;;;13.50;99.90;;;;;;5045308;28;20029;-81
2023/09/04 03:24:23;;;;;;;8.57;7.30;;;13.50;99.90;;;;;;5042083;28;20049;-81
2023/09/04 03:26:49;;;;;;;7.90;6.57;;;13.50;99.90;;;;;;5046687;28;20045;-81
2023/09/04 03:29:15;;;;;;;8.00;7.22;;;13.40;99.90;;;;;;5048066;28;20063;-81
2023/09/04 03:31:41;;;;;;;7.05;6.35;;;13.40;99.90;;;;;;5046940;28;20041;-80
2023/09/04 03:34:07;;;;;;;7.43;6.53;;;13.40;99.90;;;;;;5044913;28;20049;-81
2023/09/04 03:36:33;;;;;;;6.57;5.93;;;13.30;99.90;;;;;;5038773;28;20529;-80
2023/09/04 03:38:59;;;;;;;8.15;7.10;;;13.30;99.90;;;;;;5041074;28;20102;-80
2023/09/04 03:41:26;;;;;;;6.88;6.20;;;13.30;99.90;;;;;;5042781;28;20041;-81
2023/09/04 03:43:51;;;;;;;7.93;6.90;;;13.30;99.90;;;;;;5041583;28;20888;-80
2023/09/04 03:46:17;;;;;;;7.63;6.90;;;13.30;99.90;;;;;;5042429;28;20135;-80
2023/09/04 03:48:43;;;;;;;7.70;6.90;;;13.20;99.90;;;;;;5064175;28;20067;-80
2023/09/04 03:51:08;;;;;;;7.88;7.07;;;13.20;99.90;;;;;;5044184;28;20552;-80
2023/09/04 03:53:34;;;;;;;7.93;7.03;;;13.20;99.90;;;;;;5042201;28;20041;-80
2023/09/04 03:56:06;;;;;;;7.68;6.82;;;13.20;99.90;;;;;;5039645;28;20112;-81
2023/09/04 03:58:33;;;;;;;8.27;7.00;;;13.20;99.90;;;;;;5036054;28;20436;-81
2023/09/04 04:00:59;;;;;;;9.63;6.07;;;13.20;99.90;;;;;;5047212;28;20033;-81
2023/09/04 04:03:25;;;;;;;9.27;6.30;;;13.20;99.90;;;;;;5045929;28;20052;-81
2023/09/04 04:05:51;;;;;;;9.35;6.82;;;13.20;99.90;;;;;;5039978;28;20482;-81
2023/09/04 04:08:16;;;;;;;7.45;6.72;;;13.20;99.90;;;;;;5052313;28;20056;-80
2023/09/04 04:10:44;;;;;;;8.55;7.25;;;13.20;99.90;;;;;;5041719;28;20436;-81
2023/09/04 04:13:10;;;;;;;9.18;7.88;;;13.20;99.90;;;;;;5037310;28;20442;-81
2023/09/04 04:15:38;;;;;;;7.60;6.90;;;13.20;99.90;;;;;;5039094;28;20171;-81
2023/09/04 04:18:05;;;;;;;8.88;7.93;;;13.10;99.90;;;;;;5042236;28;20145;-81
2023/09/04 04:20:31;;;;;;;8.70;7.63;;;13.10;99.90;;;;;;5045111;28;20450;-80
2023/09/04 04:22:57;;;;;;;7.50;6.57;;;13.10;99.90;;;;;;5044557;28;21732;-81
2023/09/04 04:25:23;;;;;;;7.72;6.57;;;13.00;99.90;;;;;;5043104;28;20052;-81
2023/09/04 04:27:49;;;;;;;8.38;5.55;;;13.00;99.90;;;;;;5038697;28;20158;-81
2023/09/04 04:30:14;;;;;;;6.00;5.00;;;13.00;99.90;;;;;;5049166;28;20045;-80
2023/09/04 04:32:40;;;;;;;6.80;5.30;;;12.90;99.90;;;;;;5035021;28;20655;-80
2023/09/04 04:35:07;;;;;;;6.30;5.32;;;12.90;99.90;;;;;;5037688;28;20319;-80
2023/09/04 04:37:33;;;;;;;7.10;5.68;;;12.90;99.90;;;;;;5041931;28;20041;-81
2023/09/04 04:40:00;;;;;;;8.45;5.82;;;12.90;99.90;;;;;;5044020;28;20043;-80
2023/09/04 04:42:26;;;;;;;;;;;12.80;99.90;;;;;;5035852;28;20491;-81
2023/09/04 04:44:54;;;;;;;7.90;7.20;;;12.80;99.90;;;;;;5044217;28;19920;-81
2023/09/04 04:47:20;;;;;;;8.90;8.07;;;12.80;99.90;;;;;;5051881;28;20120;-80
2023/09/04 04:49:46;;;;;;;8.30;7.25;;;12.80;99.90;;;;;;5045986;28;20119;-81
2023/09/04 04:52:11;;;;;;;9.20;8.18;;;12.80;99.90;;;;;;5037273;28;20040;-81
2023/09/04 04:54:37;;;;;;;8.80;7.93;;;12.90;99.90;;;;;;5041455;28;20048;-81
2023/09/04 04:57:03;;;;;;;8.18;7.47;;;12.90;99.90;;;;;;5047593;28;20477;-81
2023/09/04 04:59:29;;;;;;;9.55;8.48;;;13.00;99.90;;;;;;5047151;28;20041;-81
2023/09/04 05:01:56;;;;;;;8.93;8.18;;;13.00;99.90;;;;;;5049025;28;20036;-81
2023/09/04 05:04:22;;;;;;;9.23;8.32;;;13.00;99.90;;;;;;5044771;28;20494;-81
2023/09/04 05:06:48;;;;;;;9.82;8.85;;;13.00;99.90;;;;;;5043163;28;20049;-81
2023/09/04 05:09:14;;;;;;;9.90;9.00;;;13.00;99.90;;;;;;5043626;28;20091;-80
2023/09/04 05:11:40;;;;;;;10.65;9.55;;;13.00;99.90;;;;;;5043716;28;20488;-81
2023/09/04 05:14:05;;;;;;;11.00;10.00;;;13.00;99.90;;;;;;5046161;28;20120;-82
2023/09/04 05:16:31;;;;;;;11.40;10.27;;;13.10;99.90;;;;;;5042971;28;20139;-81
2023/09/04 05:18:58;;;;;;;11.55;10.45;;;13.10;99.90;;;;;;5050819;28;20033;-81
2023/09/04 05:21:23;;;;;;;10.98;9.02;;;13.10;99.90;;;;;;5047466;28;20102;-81
2023/09/04 05:23:49;;;;;;;10.20;9.25;;;13.20;99.90;;;;;;5037161;28;20049;-80
2023/09/04 05:26:15;;;;;;;11.43;9.65;;;13.20;99.90;;;;;;5050131;28;20555;-81
2023/09/04 05:28:40;;;;;;;10.18;9.18;;;13.20;99.90;;;;;;5043200;28;20040;-81
2023/09/04 05:31:06;;;;;;;11.20;10.00;;;13.20;99.90;;;;;;5041159;28;20045;-81
2023/09/04 05:33:32;;;;;;;11.38;10.27;;;13.30;99.90;;;;;;5044039;28;20041;-81
2023/09/04 05:35:57;;;;;;;10.52;9.38;;;13.30;99.90;;;;;;5042975;28;20072;-81
2023/09/04 05:38:24;;;;;;;10.85;9.85;;;13.30;99.90;;;;;;5040559;28;20045;-80
2023/09/04 05:40:55;;;;;;;11.00;9.88;;;13.40;99.90;;;;;;5063582;28;20052;-79
2023/09/04 05:43:21;;;;;;;12.30;10.38;;;13.40;99.90;;;;;;5047649;28;20128;-77
2023/09/04 05:45:47;;;;;;;11.50;10.50;;;13.50;99.90;;;;;;5033022;28;20065;-76
2023/09/04 05:48:16;;;;;;;11.40;10.40;;;13.60;99.90;;;;;;5034331;28;20492;-78
2023/09/04 05:50:42;;;;;;;11.85;10.75;;;13.60;99.90;;;;;;5053810;28;20056;-78
2023/09/04 05:53:08;;;;;;;11.70;10.60;;;13.60;99.90;;;;;;5039287;28;20041;-78
2023/09/04 05:55:37;;;;;;;12.13;11.02;;;13.70;99.90;;;;;;5037634;28;20037;-77
2023/09/04 05:58:06;;;;;;;12.95;11.48;;;13.80;99.90;;;;;;5051019;28;20052;-84
2023/09/04 06:00:32;;;;;;;12.95;11.77;;;13.80;99.90;;;;;;5043619;28;20460;-89
2023/09/04 06:02:59;;;;;;;12.55;11.20;;;13.90;99.90;;;;;;5038182;28;20070;-86
2023/09/04 06:05:25;;;;;;;11.63;10.60;;;14.00;99.90;;;;;;5040126;28;20385;-89
2023/09/04 06:07:52;;;;;;;11.70;10.65;;;14.10;99.90;;;;;;5036032;28;20045;-88
2023/09/04 06:10:18;;;;;;;11.95;10.85;;;14.10;99.90;;;;;;5037424;28;20057;-87
2023/09/04 06:12:44;;;;;;;12.57;11.40;;;14.20;99.90;;;;;;5044340;28;20036;-88
2023/09/04 06:15:10;;;;;;;12.75;11.43;;;14.30;99.90;;;;;;5039079;28;20159;-88
2023/09/04 06:17:36;;;;;;;12.25;11.13;;;14.40;99.90;;;;;;5037021;28;20041;-89
2023/09/04 06:20:03;;;;;;;13.00;11.68;;;14.50;99.90;;;;;;5034836;28;20563;-88
2023/09/04 06:22:28;;;;;;;12.63;11.38;;;14.60;99.90;;;;;;5044206;28;20052;-88
2023/09/04 06:24:54;;;;;;;12.95;11.75;;;14.60;99.90;;;;;;5043235;28;20040;-88
2023/09/04 06:27:20;;;;;;;12.52;11.43;;;14.70;99.90;;;;;;5043667;28;20098;-88
2023/09/04 06:29:46;;;;;;;13.40;12.20;;;14.80;99.90;;;;;;5039154;28;20127;-88
2023/09/04 06:32:14;;;;;;;12.90;11.60;;;14.90;99.90;;;;;;5041317;28;20037;-88
2023/09/04 06:34:40;;;;;;;13.57;12.40;;;14.90;99.90;;;;;;5041752;28;20388;-88
2023/09/04 06:37:06;;;;;;;12.48;11.38;;;15.00;99.90;;;;;;5041928;28;20044;-88
2023/09/04 06:39:31;;;;;;;12.73;11.57;;;15.10;99.90;;;;;;5045435;28;20489;-88
2023/09/04 06:41:57;;;;;;;13.13;11.80;;;15.20;99.90;;;;;;5047851;28;20079;-88
2023/09/04 06:44:26;;;;;;;12.35;11.25;;;15.30;99.90;;;;;;5042366;28;20041;-87
2023/09/04 06:46:51;;;;;;;13.00;11.73;;;15.30;99.90;;;;;;5040907;28;20608;-88
2023/09/04 06:49:17;;;;;;;12.63;11.52;;;15.40;99.90;;;;;;5043180;28;20040;-88
2023/09/04 06:51:43;;;;;;;12.80;11.70;;;15.50;99.90;;;;;;5045335;28;20124;-88
2023/09/04 06:54:08;;;;;;;12.98;11.82;;;15.50;99.90;;;;;;5043454;28;20080;-88
2023/09/04 06:56:34;;;;;;;12.13;11.02;;;15.50;99.90;;;;;;5051728;28;20053;-85
2023/09/04 06:59:00;;;;;;;12.55;11.38;;;15.60;99.90;;;;;;5038944;28;20434;-87
2023/09/04 07:01:26;;;;;;;12.10;10.95;;;15.70;99.90;;;;;;5037984;28;20545;-85
2023/09/04 07:03:52;;;;;;;11.93;10.75;;;15.70;99.90;;;;;;5033602;28;20508;-90
2023/09/04 07:06:17;;;;;;;12.07;10.75;;;15.80;99.90;;;;;;5041733;28;20121;-86
2023/09/04 07:08:43;;;;;;;11.70;10.35;;;15.90;99.90;;;;;;5040119;28;20123;-85
2023/09/04 07:11:09;;;;;;;13.07;10.57;;;15.90;99.90;;;;;;5041987;28;20049;-86
2023/09/04 07:13:35;;;;;;;10.90;9.90;;;16.00;99.90;;;;;;5050544;28;20033;-88
2023/09/04 07:16:00;;;;;;;10.50;9.50;;;16.10;99.90;;;;;;5051571;28;20505;-84
2023/09/04 07:18:26;;;;;;;11.50;10.25;;;16.10;99.90;;;;;;5059593;28;20084;-85
2023/09/04 07:20:52;;;;;;;11.75;10.55;;;16.20;99.90;;;;;;5059684;28;20071;-85
2023/09/04 07:23:18;;;;;;;11.18;10.18;;;16.30;99.90;;;;;;5054114;28;20125;-78
2023/09/04 07:25:44;;;;;;;12.00;10.65;;;16.40;99.90;;;;;;5052023;28;20446;-75
2023/09/04 07:28:09;;;;;;;11.15;10.15;;;16.40;99.90;;;;;;5042695;28;20038;-86
2023/09/04 07:30:36;;;;;;;10.77;9.77;;;16.50;99.90;;;;;;5056656;28;20165;-86
2023/09/04 07:33:03;;;;;;;10.95;9.88;;;16.50;99.90;;;;;;5050158;28;20502;-87
2023/09/04 07:35:29;;;;;;;11.70;9.73;;;16.60;99.90;;;;;;5044188;28;20636;-84
2023/09/04 07:37:55;;;;;;;10.23;9.25;;;16.60;99.90;;;;;;5049076;28;20102;-81
2023/09/04 07:40:20;;;;;;;10.00;9.00;;;16.70;99.90;;;;;;5042509;28;20044;-82
2023/09/04 07:42:46;;;;;;;11.15;9.75;;;16.70;99.90;;;;;;5040673;28;20045;-83
2023/09/04 07:45:12;;;;;;;10.98;9.98;;;16.80;99.90;;;;;;5047652;28;20136;-84
2023/09/04 07:47:37;;;;;;;10.90;9.77;;;16.90;99.90;;;;;;5048268;28;20044;-80
2023/09/04 07:50:04;;;;;;;11.48;10.40;;;16.90;99.90;;;;;;5048919;28;20077;-83
2023/09/04 07:52:29;;;;;;;11.05;10.00;;;17.00;99.90;;;;;;5047399;28;20434;-81
2023/09/04 07:54:55;;;;;;;11.63;9.77;;;17.00;99.90;;;;;;5047045;28;20037;-81
2023/09/04 07:57:21;;;;;;;10.57;8.85;;;17.10;99.90;;;;;;5048362;28;20025;-81
2023/09/04 07:59:47;;;;;;;10.43;9.20;;;17.10;99.90;;;;;;5045400;28;20045;-81
2023/09/04 08:02:13;;;;;;;9.70;8.68;;;17.20;99.90;;;;;;5039562;28;20048;-78
2023/09/04 08:04:38;;;;;;;9.93;8.80;;;17.30;99.90;;;;;;5025117;28;20049;-87
2023/09/04 08:07:05;;;;;;;9.70;7.85;;;17.40;99.90;;;;;;5049730;28;20060;-90
2023/09/04 08:09:30;;;;;;;9.30;8.25;;;17.40;99.90;;;;;;5050748;28;20127;-88
2023/09/04 08:11:56;;;;;;;8.50;7.72;;;17.50;99.90;;;;;;5044343;28;20176;-90
2023/09/04 08:14:22;;;;;;;9.18;7.80;;;17.60;99.90;;;;;;5037859;28;20405;-90
2023/09/04 08:16:47;;;;;;;8.48;7.63;;;17.70;99.90;;;;;;5047856;28;20029;-83
2023/09/04 08:19:13;;;;;;;8.60;6.97;;;17.80;99.90;;;;;;5030027;28;20072;-85
2023/09/04 08:21:39;;;;;;;8.60;6.85;;;17.80;99.90;;;;;;5046913;28;20037;-84
2023/09/04 08:24:05;;;;;;;8.35;6.90;;;18.00;99.90;;;;;;5047786;28;20487;-85
2023/09/04 08:26:31;;;;;;;9.55;6.35;;;18.10;99.90;;;;;;5051953;28;20473;-84
2023/09/04 08:28:56;;;;;;;6.55;5.95;;;18.20;99.90;;;;;;5050012;28;20048;-84
2023/09/04 08:31:22;;;;;;;7.32;6.28;;;18.20;99.90;;;;;;5053645;28;20037;-85
2023/09/04 08:33:47;;;;;;;7.10;5.75;;;18.30;99.90;;;;;;5052220;28;20522;-85
2023/09/04 08:36:13;;;;;;;6.82;5.95;;;18.40;99.90;;;;;;5048568;28;20052;-85
2023/09/04 08:38:39;;;;;;;6.68;5.85;;;18.50;99.90;;;;;;5050550;28;20175;-85
2023/09/04 08:41:08;;;;;;;7.30;5.68;;;18.50;99.90;;;;;;5049746;28;20041;-85
2023/09/04 08:43:36;;;;;;;7.45;5.68;;;18.60;99.90;;;;;;5050730;28;20045;-85
2023/09/04 08:46:08;;;;;;;5.97;4.95;;;18.70;99.90;;;;;;5048580;28;20049;-85
2023/09/04 08:48:41;;;;;;;5.78;4.90;;;18.80;99.90;;;;;;5035682;28;20323;-85
2023/09/04 08:51:08;;;;;;;5.78;5.00;;;18.80;99.90;;;;;;5043624;28;20119;-86
2023/09/04 08:53:35;;;;;;;7.53;4.13;;;18.90;99.90;;;;;;5052392;28;20041;-85
2023/09/04 08:56:02;;;;;;;;;;;19.00;99.90;;;;;;5053832;28;20095;-86
2023/09/04 08:58:28;;;;;;;4.45;3.80;;;19.10;99.90;;;;;;5049756;28;19917;-85
2023/09/04 09:00:54;;;;;;;4.25;3.80;;;19.10;99.90;;;;;;5048486;28;20086;-86
2023/09/04 09:03:21;;;;;;;5.97;4.20;;;19.20;99.90;;;;;;5048146;28;20045;-86
2023/09/04 09:05:48;;;;;;;5.07;3.80;;;19.30;99.90;;;;;;5047099;28;20424;-84
2023/09/04 09:08:16;;;;;;;4.87;3.83;;;19.40;99.90;;;;;;5043585;28;20889;-85
2023/09/04 09:10:45;;;;;;;6.00;3.45;;;19.50;99.90;;;;;;5052403;28;20365;-89
2023/09/04 09:13:14;;;;;;;4.70;3.85;;;19.50;99.90;;;;;;5052286;28;20043;-83
2023/09/04 09:15:41;;;;;;;4.72;3.95;;;19.60;99.90;;;;;;5051813;28;20048;-83
2023/09/04 09:18:07;;;;;;;4.47;3.60;;;19.60;99.90;;;;;;5052281;28;20082;-82
2023/09/04 09:20:35;;;;;;;7.03;3.80;;;19.70;99.90;;;;;;5053135;28;20049;-81
2023/09/04 09:23:05;;;;;;;4.13;3.65;;;19.70;99.90;;;;;;5051684;28;20519;-81
2023/09/04 09:25:34;;;;;;;5.50;3.40;;;19.80;99.90;;;;;;5048835;28;20041;-83
2023/09/04 09:28:05;;;;;;;4.65;3.40;;;19.90;99.90;;;;;;5042004;28;20098;-81
2023/09/04 09:30:37;;;;;;;4.10;3.67;;;19.90;99.90;;;;;;5050486;28;20053;-82
2023/09/04 09:33:06;;;;;;;3.90;2.90;;;20.10;99.90;;;;;;5050559;28;20098;-82
2023/09/04 09:35:32;;;;;;;5.32;4.00;;;20.10;99.90;;;;;;5051360;28;20099;-83
2023/09/04 09:38:00;;;;;;;4.65;3.20;;;20.20;99.90;;;;;;5042964;28;20032;-82
2023/09/04 09:40:26;;;;;;;6.63;3.60;;;20.20;99.90;;;;;;5044182;28;20047;-82
2023/09/04 09:42:52;;;;;;;5.35;3.55;;;20.30;99.90;;;;;;5041686;28;20444;-81
2023/09/04 09:45:18;;;;;;;4.32;3.60;;;20.40;99.90;;;;;;5043113;28;20041;-84
2023/09/04 09:47:44;;;;;;;4.78;3.13;;;20.40;99.90;;;;;;5046148;28;20044;-81
2023/09/04 09:50:10;;;;;;;5.90;3.33;;;20.50;99.90;;;;;;5052284;28;20063;-84
2023/09/04 09:52:35;;;;;;;4.85;3.17;;;20.50;99.90;;;;;;5058395;28;20450;-88
2023/09/04 09:55:01;;;;;;;7.60;3.70;;;20.60;99.90;;;;;;5059555;28;20123;-84
2023/09/04 09:57:27;;;;;;;6.45;3.47;;;20.70;99.90;;;;;;5061261;28;20037;-82
2023/09/04 09:59:53;;;;;;;4.70;3.03;;;20.80;99.90;;;;;;5055386;28;20396;-89
2023/09/04 10:02:24;;;;;;;4.93;3.42;;;20.80;99.90;;;;;;5055656;28;20040;-87
2023/09/04 10:04:51;;;;;;;4.40;3.47;;;20.90;99.90;;;;;;5051300;28;20119;-82
2023/09/04 10:07:21;;;;;;;4.57;3.30;;;21.00;99.90;;;;;;5059432;28;20399;-88
2023/09/04 10:09:59;;;;;;;4.18;3.00;;;21.00;99.90;;;;;;5052461;28;20033;-85
2023/09/04 10:12:39;;;;;;;5.00;3.28;;;21.10;99.90;;;;;;5066788;28;20051;-87
2023/09/04 10:15:07;;;;;;;3.55;2.60;;;21.20;99.90;;;;;;5041983;28;20457;-80
2023/09/04 10:18:05;;;;;;;5.15;2.80;;;21.30;99.90;;;;;;5048968;28;20403;-81
2023/09/04 10:20:33;;;;;;;4.72;2.70;;;21.40;99.90;;;;;;5038674;28;21031;-82
2023/09/04 10:23:10;;;;;;;6.70;2.75;;;21.40;99.90;;;;;;5047976;28;20049;-83
2023/09/04 10:25:43;;;;;;;;;;;21.50;99.90;;;;;;5045559;28;20370;-82
2023/09/04 10:28:21;;;;;;;4.80;2.42;;;21.60;99.90;;;;;;5048158;28;19947;-78
2023/09/04 10:30:52;;;;;;;4.47;2.30;;;21.70;99.90;;;;;;5048276;28;20044;-85
2023/09/04 10:33:19;;;;;;;3.90;2.50;;;21.70;99.90;;;;;;5043388;28;20132;-87
2023/09/04 10:35:44;;;;;;;6.38;2.78;;;21.70;99.90;;;;;;5050336;28;20044;-84
2023/09/04 10:38:10;;;;;;;4.28;2.47;;;21.80;99.90;;;;;;5048571;28;20048;-86
2023/09/04 10:40:38;;;;;;;4.25;2.75;;;21.90;99.90;;;;;;5045085;28;20527;-86
2023/09/04 10:43:04;;;;;;;5.32;2.55;;;22.00;99.90;;;;;;5043370;28;20045;-84
2023/09/04 10:45:31;;;;;;;3.63;2.63;;;22.00;99.90;;;;;;5048213;28;20070;-81
2023/09/04 10:47:57;;;;;;;4.45;2.40;;;22.10;99.90;;;;;;5049578;28;20094;-81
2023/09/04 10:50:30;;;;;;;4.95;2.60;;;22.20;99.90;;;;;;5048856;28;20052;-83
2023/09/04 10:52:57;;;;;;;4.55;3.00;;;22.20;99.90;;;;;;5043832;28;20094;-79
2023/09/04 10:55:24;;;;;;;;;;;22.30;99.90;;;;;;5035688;28;20049;-79
2023/09/04 10:57:56;;;;;;;;;;;22.40;99.90;;;;;;5049649;28;19920;-80
2023/09/04 11:00:34;;;;;;;3.10;2.60;;;22.40;99.90;;;;;;5044288;28;19921;-81
2023/09/04 11:03:21;;;;;;;3.58;2.63;;;22.50;99.90;;;;;;5040512;28;20044;-82
2023/09/04 11:06:05;;;;;;;3.50;2.63;;;22.60;99.90;;;;;;5048819;28;20067;-79
2023/09/04 11:08:35;;;;;;;5.72;2.50;;;22.70;99.90;;;;;;5041947;28;20063;-80
2023/09/04 11:11:07;;;;;;;4.53;2.80;;;22.80;99.90;;;;;;5049028;28;20120;-80
2023/09/04 11:13:33;;;;;;;5.35;2.50;;;22.80;99.90;;;;;;5037208;28;20060;-80
2023/09/04 11:16:03;;;;;;;4.72;2.60;;;22.90;99.90;;;;;;5030013;28;20416;-80
2023/09/04 11:18:30;;;;;;;3.92;2.47;;;22.90;99.90;;;;;;5038482;28;20049;-81
2023/09/04 11:20:57;;;;;;;3.20;2.10;;;23.00;99.90;;;;;;5063237;28;20567;-81
2023/09/04 11:23:26;;;;;;;3.08;1.95;;;23.00;99.90;;;;;;5047731;28;20484;-81
2023/09/04 11:25:53;;;;;;;3.25;2.10;;;23.00;99.90;;;;;;5039195;28;20053;-80
2023/09/04 11:28:23;;;;;;;4.10;2.20;;;23.10;99.90;;;;;;5046650;28;20048;-83
2023/09/04 11:30:59;;;;;;;3.17;2.05;;;23.20;99.90;;;;;;5041530;28;20083;-79
2023/09/04 11:33:29;;;;;;;4.32;1.80;;;23.20;99.90;;;;;;5047152;28;20381;-79
2023/09/04 11:36:06;;;;;;;4.28;2.00;;;23.30;99.90;;;;;;5046702;28;20041;-81
2023/09/04 11:38:36;;;;;;;3.05;1.90;;;23.40;99.90;;;;;;5039958;28;20115;-81
2023/09/04 11:41:22;;;;;;;2.08;1.70;;;23.40;99.90;;;;;;5050178;28;20066;-81
2023/09/04 11:43:48;;;;;;;2.10;1.80;;;23.50;99.90;;;;;;5053568;28;20061;-81
2023/09/04 11:46:14;;;;;;;3.15;1.88;;;23.50;99.90;;;;;;5068112;28;20487;-80
2023/09/04 11:48:40;;;;;;;3.03;1.75;;;23.60;99.90;;;;;;5050027;28;20047;-80
2023/09/04 11:51:07;;;;;;;3.10;1.88;;;23.70;99.90;;;;;;5048186;28;20050;-84
2023/09/04 11:53:33;;;;;;;5.93;2.08;;;23.70;99.90;;;;;;5051991;28;20045;-81
2023/09/04 11:55:59;;;;;;;2.65;1.80;;;23.80;99.90;;;;;;5047150;28;20160;-81
2023/09/04 11:58:25;;;;;;;3.77;2.10;;;23.90;99.90;;;;;;5042585;28;20047;-87
2023/09/04 12:00:51;;;;;;;3.38;1.90;;;23.90;99.90;;;;;;5042750;28;20075;-83
2023/09/04 12:03:17;;;;;;;3.28;1.88;;;24.00;99.90;;;;;;5047059;28;20064;-82
2023/09/04 12:05:43;;;;;;;2.33;1.88;;;24.10;99.90;;;;;;5044872;28;20193;-74
2023/09/04 12:08:09;;;;;;;5.50;1.90;;;24.20;99.90;;;;;;5047056;28;20048;-85
2023/09/04 12:10:39;;;;;;;4.13;1.67;;;24.20;99.90;;;;;;5044117;28;20056;-78
2023/09/04 12:13:05;;;;;;;2.58;1.55;;;24.30;99.90;;;;;;5040845;28;20575;-88
2023/09/04 12:15:33;;;;;;;3.00;1.77;;;24.40;99.90;;;;;;5040878;28;20133;-88
2023/09/04 12:18:04;;;;;;;4.25;2.10;;;24.40;99.90;;;;;;5053384;28;20045;-87
2023/09/04 12:20:39;;;;;;;4.75;2.00;;;24.40;99.90;;;;;;5039159;28;20079;-78
2023/09/04 12:23:06;;;;;;;2.58;1.63;;;24.50;99.90;;;;;;5045198;28;20045;-88
2023/09/04 12:25:37;;;;;;;2.22;1.60;;;24.50;99.90;;;;;;5043161;28;20053;-87
2023/09/04 12:28:14;;;;;;;1.75;1.65;;;24.60;99.90;;;;;;5050092;28;20037;-84
2023/09/04 12:30:46;;;;;;;3.38;1.60;;;24.60;99.90;;;;;;5051452;28;20128;-94
2023/09/04 12:33:13;;;;;;;2.22;1.75;;;24.70;99.90;;;;;;5049316;28;20045;-84
2023/09/04 12:35:40;;;;;;;2.78;1.85;;;24.70;99.90;;;;;;5045080;28;20049;-93
2023/09/04 12:38:06;;;;;;;3.60;1.83;;;24.80;99.90;;;;;;5046343;28;20053;-85
2023/09/04 12:40:32;;;;;;;3.13;1.52;;;24.90;99.90;;;;;;5046825;28;20099;-88
2023/09/04 12:42:59;;;;;;;3.90;1.90;;;25.00;99.90;;;;;;5045884;28;20036;-82
2023/09/04 12:45:24;;;;;;;4.20;2.00;;;25.00;99.90;;;;;;5045724;28;20099;-82